createdAt,value
2023-04-14T00:00:47.779Z,99155.94
2023-04-14T00:03:16.662Z,99158.88
2023-04-14T00:05:44.538Z,99147.25
2023-04-14T00:08:12.220Z,99138.13
2023-04-14T00:10:40.750Z,99144.88
2023-04-14T00:13:08.621Z,99137.88
2023-04-14T00:15:37.761Z,99139.81
2023-04-14T00:18:06.256Z,99137.97
2023-04-14T00:20:34.059Z,99133.06
2023-04-14T00:23:01.791Z,99149.38
2023-04-14T00:25:29.516Z,99149.72
2023-04-14T00:27:57.247Z,99153.50
2023-04-14T00:30:24.930Z,99151.72
2023-04-14T00:32:53.922Z,99155.16
2023-04-14T00:35:21.797Z,99148.19
2023-04-14T00:37:49.459Z,99155.47
2023-04-14T00:40:17.085Z,99158.97
2023-04-14T00:42:45.349Z,99146.44
2023-04-14T00:45:13.839Z,99149.50
2023-04-14T00:47:46.911Z,99138.69
2023-04-14T00:50:18.221Z,99134.09
2023-04-14T00:52:50.089Z,99126.66
2023-04-14T00:55:20.524Z,99125.50
2023-04-14T00:57:48.829Z,99123.50
2023-04-14T01:00:17.189Z,99124.53
2023-04-14T01:02:44.992Z,99114.03
2023-04-14T01:05:12.903Z,99128.38
2023-04-14T01:07:42.349Z,99131.22
2023-04-14T01:10:11.339Z,99128.63
2023-04-14T01:12:55.666Z,99128.44
2023-04-14T01:15:31.394Z,99127.34
2023-04-14T01:18:08.456Z,99090.00
2023-04-14T01:20:42.268Z,99128.66
2023-04-14T01:23:16.819Z,99130.53
2023-04-14T01:26:10.753Z,99134.06
2023-04-14T01:28:56.065Z,99095.81
2023-04-14T01:31:29.128Z,99140.28
2023-04-14T01:34:04.141Z,99143.13
2023-04-14T01:36:39.039Z,99133.63
2023-04-14T01:39:09.635Z,99131.22
2023-04-14T01:41:40.362Z,99136.59
2023-04-14T01:44:10.617Z,99137.56
2023-04-14T01:46:42.360Z,99147.91
2023-04-14T01:49:12.102Z,99136.88
2023-04-14T01:51:43.215Z,99149.19
2023-04-14T01:54:13.049Z,99154.66
2023-04-14T01:56:42.738Z,99150.94
2023-04-14T01:59:13.261Z,99153.19
2023-04-14T02:01:44.614Z,99157.06
2023-04-14T02:04:13.590Z,99155.91
2023-04-14T02:06:41.912Z,99161.28
2023-04-14T02:09:13.008Z,99143.22
2023-04-14T02:11:42.283Z,99142.66
2023-04-14T02:14:11.924Z,99158.59
2023-04-14T02:16:41.130Z,99162.53
2023-04-14T02:19:10.568Z,99158.47
2023-04-14T02:21:39.497Z,99157.25
2023-04-14T02:24:07.773Z,99152.84
2023-04-14T02:26:38.592Z,99161.66
2023-04-14T02:29:12.031Z,99164.03
2023-04-14T02:31:44.472Z,99168.69
2023-04-14T02:34:15.431Z,99175.78
2023-04-14T02:36:47.268Z,99175.22
2023-04-14T02:39:19.189Z,99180.88
2023-04-14T02:41:47.863Z,99175.22
2023-04-14T02:44:20.288Z,99178.69
2023-04-14T02:46:54.753Z,99172.97
2023-04-14T02:49:25.966Z,99181.97
2023-04-14T02:51:56.648Z,99179.25
2023-04-14T02:54:25.537Z,99188.16
2023-04-14T02:56:54.421Z,99186.94
2023-04-14T02:59:26.991Z,99188.31
2023-04-14T03:02:04.563Z,99190.91
2023-04-14T03:04:39.086Z,99193.31
2023-04-14T03:07:14.529Z,99200.91
2023-04-14T03:09:43.001Z,99196.84
2023-04-14T03:12:13.316Z,99196.50
2023-04-14T03:14:45.106Z,99201.25
2023-04-14T03:17:15.424Z,99198.31
2023-04-14T03:19:48.583Z,99193.44
2023-04-14T03:22:17.787Z,99202.81
2023-04-14T03:24:46.317Z,99200.47
2023-04-14T03:27:21.834Z,99203.41
2023-04-14T03:29:55.002Z,99195.38
2023-04-14T03:32:25.879Z,99201.94
2023-04-14T03:34:58.922Z,99196.97
2023-04-14T03:37:28.922Z,99196.53
2023-04-14T03:40:00.453Z,99190.19
2023-04-14T03:42:30.929Z,99194.03
2023-04-14T03:45:00.443Z,99196.41
2023-04-14T03:47:31.772Z,99195.38
2023-04-14T03:50:05.518Z,99190.75
2023-04-14T03:52:36.389Z,99196.84
2023-04-14T03:55:07.134Z,99200.16
2023-04-14T03:57:38.748Z,99198.09
2023-04-14T04:00:09.413Z,99201.59
2023-04-14T04:02:46.230Z,99205.25
2023-04-14T04:05:16.026Z,99203.63
2023-04-14T04:07:45.439Z,99204.19
2023-04-14T04:10:14.326Z,99203.88
2023-04-14T04:12:44.052Z,99205.25
2023-04-14T04:15:13.094Z,99209.53
2023-04-14T04:17:44.154Z,99208.94
2023-04-14T04:20:16.438Z,99200.25
2023-04-14T04:22:49.712Z,99202.97
2023-04-14T04:25:17.923Z,99216.84
2023-04-14T04:27:53.640Z,99219.34
2023-04-14T04:30:25.225Z,99215.72
2023-04-14T04:32:52.924Z,99223.16
2023-04-14T04:39:09.575Z,99220.13
2023-04-14T04:41:41.105Z,99225.66
2023-04-14T04:44:09.617Z,99223.63
2023-04-14T04:46:51.029Z,99225.56
2023-04-14T04:49:18.832Z,99220.69
2023-04-14T04:51:46.985Z,99224.53
2023-04-14T04:54:17.356Z,99222.28
2023-04-14T04:56:45.280Z,99222.16
2023-04-14T04:59:13.131Z,99223.88
2023-04-14T05:01:42.063Z,99226.25
2023-04-14T05:04:09.889Z,99220.38
2023-04-14T05:06:38.414Z,99227.59
2023-04-14T05:09:06.682Z,99230.31
2023-04-14T05:11:36.270Z,99211.00
2023-04-14T05:14:04.243Z,99227.81
2023-04-14T05:16:32.032Z,99230.53
2023-04-14T05:19:00.514Z,99227.72
2023-04-14T05:21:28.330Z,99231.34
2023-04-14T05:23:56.112Z,99225.00
2023-04-14T05:28:56.119Z,99222.25
2023-04-14T05:31:23.804Z,99225.75
2023-04-14T05:33:51.473Z,99232.84
2023-04-14T05:36:19.168Z,99238.72
2023-04-14T05:38:46.959Z,99237.94
2023-04-14T05:41:14.559Z,99235.47
2023-04-14T05:43:42.216Z,99234.19
2023-04-14T05:46:11.292Z,99233.13
2023-04-14T05:48:38.978Z,99231.97
2023-04-14T05:51:06.763Z,99238.50
2023-04-14T05:53:34.362Z,99251.59
2023-04-14T05:56:01.987Z,99251.34
2023-04-14T05:58:29.637Z,99251.63
2023-04-14T06:00:57.280Z,99249.91
2023-04-14T06:03:26.402Z,99243.97
2023-04-14T06:05:54.203Z,99242.22
2023-04-14T06:08:21.833Z,99232.63
2023-04-14T06:10:49.884Z,99251.97
2023-04-14T06:13:17.564Z,99262.06
2023-04-14T06:15:45.256Z,99260.84
2023-04-14T06:18:12.847Z,99258.72
2023-04-14T06:20:41.896Z,99252.72
2023-04-14T06:23:09.773Z,99256.13
2023-04-14T06:25:37.452Z,99255.91
2023-04-14T06:28:05.407Z,99260.56
2023-04-14T06:30:33.150Z,99249.94
2023-04-14T06:33:04.148Z,99228.44
2023-04-14T06:35:33.488Z,99249.97
2023-04-14T06:38:03.198Z,99250.22
2023-04-14T06:40:30.964Z,99252.09
2023-04-14T06:42:58.572Z,99251.56
2023-04-14T06:45:26.241Z,99246.88
2023-04-14T06:47:53.888Z,99263.41
2023-04-14T06:50:21.521Z,99261.16
2023-04-14T06:52:49.110Z,99264.13
2023-04-14T06:55:18.341Z,99263.56
2023-04-14T06:57:45.953Z,99151.59
2023-04-14T07:00:15.325Z,99260.56
2023-04-14T07:02:43.073Z,99256.44
2023-04-14T07:05:11.006Z,99258.81
2023-04-14T07:07:40.088Z,99250.88
2023-04-14T07:10:08.500Z,99252.22
2023-04-14T07:12:37.492Z,99260.16
2023-04-14T07:15:06.140Z,99254.69
2023-04-14T07:17:36.688Z,99236.06
2023-04-14T07:20:05.224Z,99261.84
2023-04-14T07:22:33.202Z,99255.41
2023-04-14T07:25:00.832Z,99256.34
2023-04-14T07:27:28.739Z,99258.72
2023-04-14T07:29:58.375Z,99251.06
2023-04-14T07:32:25.963Z,99261.31
2023-04-14T07:34:53.601Z,99258.72
2023-04-14T07:37:21.699Z,99263.56
2023-04-14T07:39:49.288Z,99260.16
2023-04-14T07:42:16.967Z,99250.97
2023-04-14T07:44:44.625Z,99251.88
2023-04-14T07:47:13.637Z,99250.09
2023-04-14T07:49:41.314Z,99251.41
2023-04-14T07:52:08.995Z,99246.00
2023-04-14T07:54:36.612Z,99249.09
2023-04-14T07:57:04.244Z,99236.63
2023-04-14T07:59:32.318Z,99232.00
2023-04-14T08:02:00.149Z,99238.75
2023-04-14T08:04:29.230Z,99240.63
2023-04-14T08:06:57.842Z,99244.63
2023-04-14T08:09:25.546Z,99236.09
2023-04-14T08:11:53.124Z,99240.81
2023-04-14T08:14:21.007Z,99243.63
2023-04-14T08:16:49.519Z,99245.19
2023-04-14T08:19:17.137Z,99242.44
2023-04-14T08:21:46.077Z,99246.38
2023-04-14T08:24:13.689Z,99244.03
2023-04-14T08:26:41.291Z,99247.19
2023-04-14T08:29:08.877Z,99244.03
2023-04-14T08:31:37.102Z,99246.41
2023-04-14T08:34:05.318Z,99248.78
2023-04-14T08:36:33.019Z,99244.84
2023-04-14T08:39:02.411Z,99244.03
2023-04-14T08:41:34.534Z,99239.75
2023-04-14T08:44:02.234Z,99240.13
2023-04-14T08:46:31.720Z,99244.00
2023-04-14T08:49:04.592Z,99245.22
2023-04-14T08:51:35.478Z,99246.31
2023-04-14T08:54:08.398Z,99242.78
2023-04-14T08:56:39.035Z,99235.25
2023-04-14T08:59:07.556Z,99234.47
2023-04-14T09:01:36.509Z,99239.63
2023-04-14T09:04:05.032Z,99232.94
2023-04-14T09:06:34.328Z,99233.72
2023-04-14T09:09:06.849Z,99232.09
2023-04-14T09:11:34.848Z,99217.44
2023-04-14T09:14:03.087Z,99233.41
2023-04-14T09:16:32.207Z,99227.13
2023-04-14T09:19:02.362Z,99219.69
2023-04-14T09:21:53.851Z,99217.59
2023-04-14T09:24:30.044Z,99220.31
2023-04-14T09:26:59.929Z,99217.50
2023-04-14T09:29:27.834Z,99212.63
2023-04-14T09:31:55.557Z,99215.66
2023-04-14T09:34:23.155Z,99218.66
2023-04-14T09:37:02.331Z,99170.13
2023-04-14T09:39:32.207Z,99210.78
2023-04-14T09:42:00.168Z,99205.66
2023-04-14T09:44:27.862Z,99207.91
2023-04-14T09:47:00.236Z,99211.56
2023-04-14T09:49:29.112Z,99201.69
2023-04-14T09:52:03.727Z,99195.59
2023-04-14T09:54:33.333Z,99202.25
2023-04-14T09:57:01.482Z,99195.22
2023-04-14T09:59:34.190Z,99200.44
2023-04-14T10:02:05.573Z,99197.53
2023-04-14T10:04:33.438Z,99196.16
2023-04-14T10:07:01.633Z,99187.88
2023-04-14T10:09:30.859Z,99195.63
2023-04-14T10:12:10.828Z,99185.84
2023-04-14T10:14:39.447Z,99180.88
2023-04-14T10:17:07.495Z,99187.34
2023-04-14T10:19:36.771Z,99191.19
2023-04-14T10:22:05.835Z,99181.78
2023-04-14T10:24:33.943Z,99173.81
2023-04-14T10:27:04.160Z,99170.22
2023-04-14T10:29:33.270Z,99170.28
2023-04-14T10:32:05.526Z,99172.75
2023-04-14T10:34:34.664Z,99168.72
2023-04-14T10:37:15.263Z,99159.69
2023-04-14T10:39:43.221Z,99167.19
2023-04-14T10:42:11.007Z,99160.13
2023-04-14T10:44:40.844Z,99164.44
2023-04-14T10:47:08.952Z,99161.03
2023-04-14T10:49:38.175Z,99155.22
2023-04-14T10:52:28.191Z,99156.13
2023-04-14T10:55:00.856Z,99148.03
2023-04-14T10:57:30.088Z,99153.03
2023-04-14T11:00:00.436Z,99126.41
2023-04-14T11:02:30.073Z,99144.00
2023-04-14T11:05:03.868Z,99136.91
2023-04-14T11:07:32.871Z,99137.31
2023-04-14T11:10:05.004Z,99132.16
2023-04-14T11:12:32.682Z,99130.00
2023-04-14T11:15:04.815Z,99114.25
2023-04-14T11:17:34.227Z,99117.78
2023-04-14T11:20:02.207Z,99107.56
2023-04-14T11:22:38.298Z,99109.09
2023-04-14T11:25:06.815Z,99115.75
2023-04-14T11:27:35.698Z,99108.44
2023-04-14T11:30:07.006Z,99076.78
2023-04-14T11:32:47.576Z,99104.34
2023-04-14T11:35:15.839Z,99096.56
2023-04-14T11:37:43.992Z,99080.13
2023-04-14T11:40:12.682Z,99078.91
2023-04-14T11:42:44.798Z,99082.38
2023-04-14T11:45:15.423Z,99073.84
2023-04-14T11:47:48.779Z,99075.25
2023-04-14T11:50:18.092Z,99073.88
2023-04-14T11:52:47.258Z,99072.81
2023-04-14T11:55:15.165Z,99072.59
2023-04-14T11:57:45.568Z,99067.84
2023-04-14T12:00:15.439Z,99064.06
2023-04-14T12:02:44.836Z,99051.13
2023-04-14T12:05:13.766Z,99052.00
2023-04-14T12:07:43.836Z,99058.22
2023-04-14T12:10:12.509Z,99046.34
2023-04-14T12:12:41.076Z,99041.19
2023-04-14T12:15:10.162Z,99049.59
2023-04-14T12:17:39.187Z,99036.25
2023-04-14T12:20:14.360Z,99030.44
2023-04-14T12:22:42.096Z,99034.78
2023-04-14T12:25:13.905Z,99035.34
2023-04-14T12:27:42.076Z,99031.16
2023-04-14T12:30:10.681Z,99024.25
2023-04-14T12:32:41.414Z,99028.97
2023-04-14T12:35:09.767Z,99021.09
2023-04-14T12:37:38.832Z,99020.75
2023-04-14T12:40:07.971Z,99020.66
2023-04-14T12:42:47.111Z,99016.66
2023-04-14T12:45:15.961Z,99012.75
2023-04-14T12:47:54.212Z,99008.53
2023-04-14T12:50:27.983Z,98965.63
2023-04-14T12:52:56.364Z,98991.44
2023-04-14T12:55:25.217Z,98991.78
2023-04-14T12:57:54.299Z,98994.34
2023-04-14T13:00:22.581Z,98998.28
2023-04-14T13:02:51.896Z,98975.09
2023-04-14T13:05:21.026Z,98984.19
2023-04-14T13:07:48.730Z,98979.66
2023-04-14T13:10:16.416Z,98973.16
2023-04-14T13:12:44.104Z,98971.09
2023-04-14T13:15:59.961Z,98969.75
2023-04-14T13:18:01.380Z,98965.16
2023-04-14T13:20:31.468Z,98958.31
2023-04-14T13:22:59.098Z,98953.38
2023-04-14T13:25:26.677Z,98950.38
2023-04-14T13:27:54.297Z,98950.13
2023-04-14T13:30:22.000Z,98943.97
2023-04-14T13:32:49.735Z,98944.72
2023-04-14T13:35:17.422Z,98941.28
2023-04-14T13:37:46.897Z,98944.78
2023-04-14T13:40:14.637Z,98947.44
2023-04-14T13:42:42.267Z,98948.56
2023-04-14T13:45:10.955Z,98939.41
2023-04-14T13:47:38.589Z,98927.63
2023-04-14T13:50:07.355Z,98932.34
2023-04-14T13:52:35.671Z,98924.66
2023-04-14T13:55:04.965Z,98915.13
2023-04-14T13:57:33.061Z,98918.63
2023-04-14T14:00:00.871Z,98915.78
2023-04-14T14:02:28.551Z,98914.69
2023-04-14T14:04:56.596Z,98912.44
2023-04-14T14:07:24.258Z,98910.59
2023-04-14T14:09:51.942Z,98909.63
2023-04-14T14:12:21.033Z,98897.47
2023-04-14T14:14:48.692Z,98898.91
2023-04-14T14:17:16.823Z,98894.81
2023-04-14T14:19:44.509Z,98888.34
2023-04-14T14:22:12.224Z,98882.88
2023-04-14T14:24:41.330Z,98874.13
2023-04-14T14:27:09.001Z,98880.19
2023-04-14T14:29:37.941Z,98883.47
2023-04-14T14:32:05.657Z,98874.81
2023-04-14T14:34:33.476Z,98877.38
2023-04-14T14:37:01.114Z,98880.19
2023-04-14T14:39:30.430Z,98869.31
2023-04-14T14:41:58.649Z,98878.75
2023-04-14T14:44:26.364Z,98873.63
2023-04-14T14:46:56.630Z,98879.28
2023-04-14T14:49:24.466Z,98870.69
2023-04-14T14:51:52.166Z,98867.25
2023-04-14T14:54:19.753Z,98869.84
2023-04-14T14:56:47.417Z,98869.06
2023-04-14T14:59:16.220Z,98874.75
2023-04-14T15:01:45.974Z,98877.56
2023-04-14T15:04:15.114Z,98872.75
2023-04-14T15:06:42.751Z,98877.19
2023-04-14T15:09:10.437Z,98882.63
2023-04-14T15:11:38.126Z,98873.31
2023-04-14T15:14:05.967Z,98877.06
2023-04-14T15:16:33.811Z,98873.59
2023-04-14T15:19:01.499Z,98870.75
2023-04-14T15:21:32.577Z,98879.31
2023-04-14T15:24:00.816Z,98879.19
2023-04-14T15:26:28.693Z,98872.72
2023-04-14T15:28:56.334Z,98873.78
2023-04-14T15:31:24.092Z,98874.31
2023-04-14T15:33:51.871Z,98871.88
2023-04-14T15:36:19.564Z,98873.63
2023-04-14T15:38:49.994Z,98870.25
2023-04-14T15:41:17.611Z,98874.19
2023-04-14T15:43:45.702Z,98872.84
2023-04-14T15:46:14.863Z,98867.75
2023-04-14T15:48:42.865Z,98847.69
2023-04-14T15:51:10.555Z,98876.91
2023-04-14T15:53:38.175Z,98869.44
2023-04-14T15:56:07.510Z,98880.00
2023-04-14T15:58:35.332Z,98869.69
2023-04-14T16:01:07.447Z,98871.69
2023-04-14T16:03:35.398Z,98869.03
2023-04-14T16:06:03.786Z,98873.34
2023-04-14T16:08:32.052Z,98875.94
2023-04-14T16:10:59.985Z,98876.88
2023-04-14T16:13:29.220Z,98882.44
2023-04-14T16:15:58.256Z,98876.25
2023-04-14T16:18:26.124Z,98880.91
2023-04-14T16:20:53.748Z,98879.81
2023-04-14T16:23:21.867Z,98885.34
2023-04-14T16:25:50.349Z,98876.50
2023-04-14T16:28:18.505Z,98871.41
2023-04-14T16:30:47.444Z,98875.75
2023-04-14T16:33:15.672Z,98864.88
2023-04-14T16:35:43.257Z,98870.19
2023-04-14T16:38:10.929Z,98873.72
2023-04-14T16:40:38.945Z,98879.50
2023-04-14T16:43:07.039Z,98879.84
2023-04-14T16:45:34.826Z,98891.31
2023-04-14T16:48:03.946Z,98886.66
2023-04-14T16:50:31.758Z,98884.69
2023-04-14T16:52:59.419Z,98874.13
2023-04-14T16:55:27.546Z,98881.53
2023-04-14T16:57:55.142Z,98881.47
2023-04-14T17:00:22.800Z,98876.25
2023-04-14T17:02:51.198Z,98871.13
2023-04-14T17:05:21.571Z,98876.25
2023-04-14T17:07:49.897Z,98874.00
2023-04-14T17:10:17.588Z,98871.50
2023-04-14T17:12:46.579Z,98872.50
2023-04-14T17:15:14.190Z,98882.84
2023-04-14T17:17:42.806Z,98881.03
2023-04-14T17:20:12.188Z,98876.56
2023-04-14T17:22:41.199Z,98863.81
2023-04-14T17:25:10.658Z,98869.44
2023-04-14T17:27:39.060Z,98872.84
2023-04-14T17:30:10.156Z,98877.81
2023-04-14T17:32:38.997Z,98882.28
2023-04-14T17:35:07.682Z,98884.03
2023-04-14T17:37:36.038Z,98884.28
2023-04-14T17:40:05.891Z,98881.00
2023-04-14T17:42:34.237Z,98887.84
2023-04-14T17:45:02.217Z,98816.56
2023-04-14T17:47:31.343Z,98887.06
2023-04-14T17:49:59.140Z,98878.63
2023-04-14T17:52:27.606Z,98885.44
2023-04-14T17:54:55.937Z,98889.16
2023-04-14T17:57:25.476Z,98892.41
2023-04-14T17:59:53.828Z,98885.94
2023-04-14T18:02:21.461Z,98884.09
2023-04-14T18:04:49.170Z,98892.81
2023-04-14T18:07:17.409Z,98891.75
2023-04-14T18:09:45.217Z,98891.78
2023-04-14T18:12:13.834Z,98881.28
2023-04-14T18:14:44.571Z,98888.47
2023-04-14T18:17:12.863Z,98889.31
2023-04-14T18:19:40.558Z,98895.28
2023-04-14T18:22:08.249Z,98885.50
2023-04-14T18:29:37.810Z,98893.41
2023-04-14T18:32:06.738Z,98898.09
2023-04-14T18:34:34.734Z,98902.81
2023-04-14T18:37:03.895Z,98906.34
2023-04-14T18:39:33.487Z,98906.34
2023-04-14T18:42:01.155Z,98908.25
2023-04-14T18:44:29.135Z,98909.81
2023-04-14T18:46:56.908Z,98910.56
2023-04-14T18:49:25.957Z,98912.09
2023-04-14T18:51:54.499Z,98903.06
2023-04-14T18:54:22.566Z,98910.09
2023-04-14T18:56:50.655Z,98911.25
2023-04-14T18:59:18.373Z,98911.63
2023-04-14T19:01:46.180Z,98920.59
2023-04-14T19:04:14.210Z,98918.97
2023-04-14T19:06:43.920Z,98918.56
2023-04-14T19:09:11.947Z,98924.44
2023-04-14T19:11:39.950Z,98922.75
2023-04-14T19:14:07.649Z,98928.22
2023-04-14T19:16:35.283Z,98924.91
2023-04-14T19:19:03.089Z,98930.06
2023-04-14T19:21:31.807Z,98936.31
2023-04-14T19:24:00.812Z,98939.88
2023-04-14T19:26:29.775Z,98937.91
2023-04-14T19:28:58.709Z,98939.44
2023-04-14T19:31:28.258Z,98941.00
2023-04-14T19:33:58.513Z,98946.06
2023-04-14T19:36:26.266Z,98939.03
2023-04-14T19:38:53.989Z,98945.28
2023-04-14T19:41:23.190Z,98940.16
2023-04-14T19:43:51.924Z,98944.06
2023-04-14T19:46:19.553Z,98942.88
2023-04-14T19:48:47.141Z,98941.66
2023-04-14T19:51:14.770Z,98938.47
2023-04-14T19:53:43.918Z,98936.94
2023-04-14T19:56:12.659Z,98940.00
2023-04-14T19:58:41.606Z,98937.25
2023-04-14T20:01:09.485Z,98931.34
2023-04-14T20:03:37.188Z,98934.06
2023-04-14T20:06:05.244Z,98929.38
2023-04-14T20:08:33.123Z,98932.91
2023-04-14T20:11:01.533Z,98928.22
2023-04-14T20:13:31.965Z,98933.69
2023-04-14T20:16:01.577Z,98925.38
2023-04-14T20:18:29.310Z,98928.97
2023-04-14T20:20:57.213Z,98928.16
2023-04-14T20:23:24.960Z,98926.56
2023-04-14T20:25:53.806Z,98928.97
2023-04-14T20:28:25.591Z,98918.84
2023-04-14T20:30:54.783Z,98928.25
2023-04-14T20:33:24.446Z,98922.81
2023-04-14T20:35:53.822Z,98922.84
2023-04-14T20:38:22.354Z,98921.34
2023-04-14T20:40:50.030Z,98920.66
2023-04-14T20:43:17.617Z,98916.00
2023-04-14T20:45:45.536Z,98917.13
2023-04-14T20:48:13.570Z,98918.25
2023-04-14T20:50:44.225Z,98926.22
2023-04-14T20:53:11.881Z,98921.53
2023-04-14T20:55:41.030Z,98913.69
2023-04-14T20:58:08.745Z,98925.44
2023-04-14T21:00:36.376Z,98918.75
2023-04-14T21:03:04.457Z,98915.22
2023-04-14T21:05:32.847Z,98907.72
2023-04-14T21:08:02.147Z,98910.34
2023-04-14T21:10:29.852Z,98906.34
2023-04-14T21:15:43.512Z,98904.72
2023-04-14T21:15:54.753Z,98903.09
2023-04-14T21:18:23.776Z,98908.47
2023-04-14T21:20:51.763Z,98902.28
2023-04-14T21:23:21.269Z,98918.44
2023-04-14T21:25:49.046Z,98914.66
2023-04-14T21:28:16.809Z,98917.41
2023-04-14T21:30:44.529Z,98915.75
2023-04-14T21:33:12.278Z,98913.38
2023-04-14T21:35:39.908Z,98899.28
2023-04-14T21:38:07.984Z,98913.41
2023-04-14T21:40:36.900Z,98902.84
2023-04-14T21:43:04.815Z,98911.06
2023-04-14T21:45:32.760Z,98910.25
2023-04-14T21:48:00.550Z,98910.22
2023-04-14T21:50:28.696Z,98919.63
2023-04-14T21:52:56.529Z,98910.25
2023-04-14T21:55:24.168Z,98921.97
2023-04-14T21:57:55.154Z,98912.53
2023-04-14T22:00:24.061Z,98907.81
2023-04-14T22:02:51.795Z,98908.16
2023-04-14T22:05:19.837Z,98905.75
2023-04-14T22:07:47.474Z,98908.47
2023-04-14T22:10:15.558Z,98907.66
2023-04-14T22:12:44.620Z,98909.56
2023-04-14T22:15:14.356Z,98911.53
2023-04-14T22:17:42.482Z,98920.53
2023-04-14T22:20:11.902Z,98920.91
2023-04-14T22:22:39.625Z,98920.13
2023-04-14T22:25:08.358Z,98914.19
2023-04-14T22:27:36.521Z,98913.78
2023-04-14T22:30:05.223Z,98901.16
2023-04-14T22:32:34.385Z,98914.59
2023-04-14T22:35:02.034Z,98917.28
2023-04-14T22:37:29.650Z,98919.94
2023-04-14T22:39:57.723Z,98922.13
2023-04-14T22:42:25.973Z,98929.09
2023-04-14T22:44:54.297Z,98922.00
2023-04-14T22:47:22.332Z,98931.25
2023-04-14T22:49:51.752Z,98924.97
2023-04-14T22:52:19.817Z,98934.75
2023-04-14T22:54:48.571Z,98934.00
2023-04-14T22:57:16.431Z,98930.34
2023-04-14T22:59:44.257Z,98902.25
2023-04-14T23:02:12.089Z,98934.31
2023-04-14T23:04:39.987Z,98940.03
2023-04-14T23:07:09.014Z,98947.41
2023-04-14T23:09:36.606Z,98945.31
2023-04-14T23:12:04.486Z,98944.13
2023-04-14T23:14:33.092Z,98951.28
2023-04-14T23:17:00.952Z,98942.38
2023-04-14T23:19:28.678Z,98942.66
2023-04-14T23:21:56.820Z,98948.06
2023-04-14T23:24:25.966Z,98951.13
2023-04-14T23:26:53.629Z,98947.91
2023-04-14T23:29:21.388Z,98956.84
2023-04-14T23:31:49.113Z,98954.00
2023-04-14T23:34:16.796Z,98957.13
2023-04-14T23:36:46.681Z,98945.00
2023-04-14T23:39:14.269Z,98950.44
2023-04-14T23:41:43.195Z,98949.66
2023-04-14T23:44:10.736Z,98937.88
2023-04-14T23:46:39.186Z,98940.47
2023-04-14T23:49:24.623Z,98942.59
2023-04-14T23:51:54.677Z,98939.88
2023-04-14T23:54:22.246Z,98939.19
2023-04-14T23:56:51.523Z,98937.28
2023-04-14T23:59:19.110Z,98938.00
